Time;durP1;ratioP1;P1;durP2;ratioP2;P2;SDS_P1;SDS_P2;PMS_P1;PMS_P2;Temp;Humidity;BMP_temperature;BMP_pressure;BME280_temperature;BME280_humidity;BME280_pressure;Samples;Min_cycle;Max_cycle;Signal;HPM_P1;HPM_P2
2021/09/28 00:00:38;;;;;;;7.57;4.75;;;10.60;99.90;;;;;;5031751;28;20021;-81
2021/09/28 00:03:05;;;;;;;12.25;4.10;;;10.60;99.90;;;;;;5031792;28;20056;-81
2021/09/28 00:05:31;;;;;;;6.78;4.25;;;10.50;99.90;;;;;;5031636;28;20021;-81
2021/09/28 00:07:57;;;;;;;7.07;4.07;;;10.50;99.90;;;;;;5032938;28;20049;-81
2021/09/28 00:10:22;;;;;;;5.68;4.00;;;10.50;99.90;;;;;;5031609;28;20032;-81
2021/09/28 00:12:48;;;;;;;9.07;4.40;;;10.50;99.90;;;;;;5032760;28;20387;-81
2021/09/28 00:15:15;;;;;;;6.82;4.20;;;10.50;99.90;;;;;;5031565;28;20024;-82
2021/09/28 00:17:41;;;;;;;8.75;4.47;;;10.50;99.90;;;;;;5031824;28;20029;-82
2021/09/28 00:20:08;;;;;;;9.13;4.50;;;10.50;99.90;;;;;;5035503;28;20155;-82
2021/09/28 00:22:35;;;;;;;8.80;4.47;;;10.40;99.90;;;;;;5051428;28;20013;-81
2021/09/28 00:25:01;;;;;;;6.55;4.13;;;10.40;99.90;;;;;;5052667;28;20025;-81
2021/09/28 00:27:27;;;;;;;6.35;3.97;;;10.30;99.90;;;;;;5051267;28;20487;-82
2021/09/28 00:29:53;;;;;;;7.78;4.30;;;10.30;99.90;;;;;;5052668;28;20021;-81
2021/09/28 00:32:18;;;;;;;9.35;4.13;;;10.30;99.90;;;;;;5052521;28;20096;-82
2021/09/28 00:34:45;;;;;;;8.38;4.80;;;10.20;99.90;;;;;;5051311;28;20471;-82
2021/09/28 00:37:11;;;;;;;6.53;4.43;;;10.20;99.90;;;;;;5052638;28;20133;-82
2021/09/28 00:39:37;;;;;;;10.10;4.30;;;10.20;99.90;;;;;;5052937;28;20037;-82
2021/09/28 00:42:03;;;;;;;7.45;4.30;;;10.10;99.90;;;;;;5052656;28;20049;-82
2021/09/28 00:44:37;;;;;;;6.82;4.10;;;10.10;99.90;;;;;;5052308;28;20032;-82
2021/09/28 00:47:05;;;;;;;6.88;4.70;;;10.10;99.90;;;;;;5052517;28;20074;-82
2021/09/28 00:49:30;;;;;;;10.68;4.22;;;10.00;99.90;;;;;;5051092;28;20083;-81
2021/09/28 00:51:56;;;;;;;7.25;4.93;;;10.00;99.90;;;;;;5052530;28;20486;-81
2021/09/28 00:54:22;;;;;;;6.57;4.07;;;10.00;99.90;;;;;;5052377;28;20079;-81
2021/09/28 00:56:48;;;;;;;7.07;4.05;;;10.00;99.90;;;;;;5051167;28;20028;-81
2021/09/28 00:59:14;;;;;;;9.75;4.15;;;9.90;99.90;;;;;;5051051;28;20390;-81
2021/09/28 01:01:40;;;;;;;8.35;5.65;;;9.90;99.90;;;;;;5055959;28;20541;-81
2021/09/28 01:04:06;;;;;;;5.50;3.72;;;9.90;99.90;;;;;;5054880;28;20060;-81
2021/09/28 01:06:32;;;;;;;7.07;4.43;;;9.90;99.90;;;;;;5054792;28;20526;-81
2021/09/28 01:08:58;;;;;;;7.88;4.38;;;9.80;99.90;;;;;;5054793;28;20029;-82
2021/09/28 01:11:24;;;;;;;6.82;4.40;;;9.90;99.90;;;;;;5056017;28;20021;-82
2021/09/28 01:13:49;;;;;;;7.65;4.32;;;9.80;99.90;;;;;;5055979;28;20032;-82
2021/09/28 01:16:15;;;;;;;8.70;4.32;;;9.80;99.90;;;;;;5054654;28;20028;-81
2021/09/28 01:18:42;;;;;;;8.48;4.82;;;9.80;99.90;;;;;;5054836;28;20037;-82
2021/09/28 01:21:13;;;;;;;8.93;4.45;;;9.70;99.90;;;;;;5055874;28;20021;-81
2021/09/28 01:23:46;;;;;;;4.82;3.72;;;9.70;99.90;;;;;;5054521;28;20055;-82
2021/09/28 01:26:17;;;;;;;7.68;4.35;;;9.70;99.90;;;;;;5055883;28;20021;-82
2021/09/28 01:28:45;;;;;;;8.93;4.75;;;9.60;99.90;;;;;;5055703;28;20033;-82
2021/09/28 01:31:12;;;;;;;8.98;4.55;;;9.60;99.90;;;;;;5054378;28;20017;-81
2021/09/28 01:33:38;;;;;;;6.82;4.32;;;9.60;99.90;;;;;;5054332;28;20505;-81
2021/09/28 01:36:04;;;;;;;8.82;4.85;;;9.60;99.90;;;;;;5054383;28;20471;-81
2021/09/28 01:38:31;;;;;;;6.72;4.25;;;9.60;99.90;;;;;;5055265;28;20029;-81
2021/09/28 01:40:57;;;;;;;5.55;4.40;;;9.50;99.90;;;;;;5055643;28;20029;-81
2021/09/28 01:43:22;;;;;;;6.53;4.72;;;9.50;99.90;;;;;;5054097;28;20027;-81
2021/09/28 01:45:57;;;;;;;8.18;4.45;;;9.50;99.90;;;;;;5054178;28;20021;-82
2021/09/28 01:48:30;;;;;;;6.38;4.82;;;9.50;99.90;;;;;;5054277;28;20074;-81
2021/09/28 01:50:56;;;;;;;6.90;4.40;;;9.40;99.90;;;;;;5055377;28;20061;-81
2021/09/28 01:53:22;;;;;;;7.13;5.13;;;9.40;99.90;;;;;;5055204;28;20446;-81
2021/09/28 01:55:47;;;;;;;7.22;4.40;;;9.40;99.90;;;;;;5054315;28;20506;-81
2021/09/28 01:58:14;;;;;;;4.70;3.80;;;9.30;99.90;;;;;;5055121;28;20052;-81
2021/09/28 02:00:41;;;;;;;6.32;4.50;;;9.30;99.90;;;;;;5055145;28;20031;-81
2021/09/28 02:03:07;;;;;;;10.18;4.95;;;9.30;99.90;;;;;;5055033;28;20391;-81
2021/09/28 02:05:32;;;;;;;7.38;3.95;;;9.20;99.90;;;;;;5055031;28;20025;-81
2021/09/28 02:07:58;;;;;;;10.93;4.43;;;9.20;99.90;;;;;;5054927;28;20508;-81
2021/09/28 02:10:24;;;;;;;8.05;4.25;;;9.20;99.90;;;;;;5053723;28;20017;-82
2021/09/28 02:12:50;;;;;;;7.65;4.93;;;9.10;99.90;;;;;;5054941;28;20494;-81
2021/09/28 02:15:16;;;;;;;6.22;4.57;;;9.20;99.90;;;;;;5054890;28;20483;-81
2021/09/28 02:17:42;;;;;;;8.25;4.85;;;9.10;99.90;;;;;;5054774;28;20032;-81
2021/09/28 02:20:09;;;;;;;7.88;4.95;;;9.10;99.90;;;;;;5054743;28;20040;-81
2021/09/28 02:22:34;;;;;;;7.20;4.55;;;9.00;99.90;;;;;;5054805;28;20044;-81
2021/09/28 02:25:00;;;;;;;6.50;4.47;;;9.00;99.90;;;;;;5053315;28;20029;-81
2021/09/28 02:27:25;;;;;;;8.38;5.07;;;9.00;99.90;;;;;;5054508;28;20542;-81
2021/09/28 02:29:51;;;;;;;8.20;4.78;;;9.00;99.90;;;;;;5054540;28;20375;-82
2021/09/28 02:32:17;;;;;;;6.82;4.68;;;9.00;99.90;;;;;;5054538;28;20021;-82
2021/09/28 02:34:42;;;;;;;10.90;4.82;;;9.00;99.90;;;;;;5054385;28;20113;-81
2021/09/28 02:37:08;;;;;;;9.30;4.88;;;8.90;99.90;;;;;;5054658;28;20115;-82
2021/09/28 02:39:37;;;;;;;8.45;5.03;;;9.00;99.90;;;;;;5053241;28;20032;-81
2021/09/28 02:42:03;;;;;;;7.43;4.63;;;8.90;99.90;;;;;;5054476;28;20021;-81
2021/09/28 02:44:29;;;;;;;6.82;4.65;;;8.90;99.90;;;;;;5036289;28;20028;-81
2021/09/28 02:46:55;;;;;;;6.07;4.60;;;8.90;99.90;;;;;;5042372;28;20402;-81
2021/09/28 02:49:20;;;;;;;8.63;5.25;;;8.90;99.90;;;;;;5048631;28;20101;-81
2021/09/28 02:51:46;;;;;;;7.85;4.45;;;8.90;99.90;;;;;;5032997;28;20030;-81
2021/09/28 02:54:11;;;;;;;7.22;4.53;;;8.80;99.90;;;;;;5032897;28;20021;-81
2021/09/28 02:56:37;;;;;;;6.03;4.88;;;8.80;99.90;;;;;;5034119;28;20108;-81
2021/09/28 02:59:03;;;;;;;8.77;5.53;;;8.80;99.90;;;;;;5036852;28;20100;-82
2021/09/28 03:01:28;;;;;;;7.78;5.00;;;8.80;99.90;;;;;;5053894;28;20039;-81
2021/09/28 03:03:54;;;;;;;6.40;4.75;;;8.80;99.90;;;;;;5053885;28;20139;-81
2021/09/28 03:06:19;;;;;;;8.45;5.53;;;8.80;99.90;;;;;;5052596;28;20199;-81
2021/09/28 03:08:45;;;;;;;7.25;4.70;;;8.80;99.90;;;;;;5052411;28;20047;-81
2021/09/28 03:11:11;;;;;;;7.88;5.10;;;8.70;99.90;;;;;;5052550;28;20021;-82
2021/09/28 03:13:37;;;;;;;6.50;4.68;;;8.70;99.90;;;;;;5053681;28;20059;-81
2021/09/28 03:16:02;;;;;;;6.60;4.75;;;8.70;99.90;;;;;;5052479;28;20025;-82
2021/09/28 03:18:28;;;;;;;6.75;5.20;;;8.70;99.90;;;;;;5053423;28;20025;-82
2021/09/28 03:20:54;;;;;;;8.20;5.28;;;8.70;99.90;;;;;;5052734;28;20021;-82
2021/09/28 03:23:19;;;;;;;13.00;5.45;;;8.60;99.90;;;;;;5052963;28;20068;-82
2021/09/28 03:25:46;;;;;;;7.68;5.07;;;8.60;99.90;;;;;;5052048;28;20479;-82
2021/09/28 03:28:12;;;;;;;6.53;4.90;;;8.60;99.90;;;;;;5052086;28;20040;-82
2021/09/28 03:30:38;;;;;;;10.65;5.50;;;8.60;99.90;;;;;;5052169;28;20021;-82
2021/09/28 03:33:05;;;;;;;6.07;5.30;;;8.60;99.90;;;;;;5052095;28;20040;-82
2021/09/28 03:35:31;;;;;;;8.10;4.80;;;8.60;99.90;;;;;;5051949;28;20021;-82
2021/09/28 03:37:56;;;;;;;8.45;5.85;;;8.70;99.90;;;;;;5051951;28;20474;-82
2021/09/28 03:40:22;;;;;;;9.57;5.78;;;8.70;99.90;;;;;;5052038;28;20032;-81
2021/09/28 03:42:48;;;;;;;8.00;5.32;;;8.70;99.90;;;;;;5051950;28;20087;-82
2021/09/28 03:45:14;;;;;;;9.20;5.47;;;8.70;99.90;;;;;;5051937;28;20021;-82
2021/09/28 03:47:40;;;;;;;9.48;5.07;;;8.70;99.90;;;;;;5051745;28;20037;-82
2021/09/28 03:50:06;;;;;;;6.85;6.25;;;8.70;99.90;;;;;;5051851;28;20402;-82
2021/09/28 03:52:33;;;;;;;8.75;5.80;;;8.70;99.90;;;;;;5051664;28;20039;-82
2021/09/28 03:54:59;;;;;;;7.75;5.60;;;8.70;99.90;;;;;;5051780;28;20031;-81
2021/09/28 03:57:25;;;;;;;12.95;6.15;;;8.70;99.90;;;;;;5051366;28;20414;-81
2021/09/28 03:59:50;;;;;;;10.45;5.15;;;8.60;99.90;;;;;;5062466;28;20021;-81
2021/09/28 04:02:16;;;;;;;11.65;6.00;;;8.60;99.90;;;;;;5071670;28;20036;-81
2021/09/28 04:04:42;;;;;;;8.95;5.65;;;8.50;99.90;;;;;;5071620;28;20504;-81
2021/09/28 04:07:07;;;;;;;9.27;5.32;;;8.40;99.90;;;;;;5072319;28;20028;-81
2021/09/28 04:09:33;;;;;;;10.95;6.40;;;8.40;99.90;;;;;;5072773;28;20463;-80
2021/09/28 04:11:58;;;;;;;8.60;5.68;;;8.30;99.90;;;;;;5071619;28;20017;-80
2021/09/28 04:14:25;;;;;;;7.90;5.85;;;8.30;99.90;;;;;;5071590;28;20025;-81
2021/09/28 04:16:51;;;;;;;9.07;5.65;;;8.30;99.90;;;;;;5071838;28;20035;-81
2021/09/28 04:19:17;;;;;;;12.30;6.53;;;8.30;99.90;;;;;;5072668;28;20021;-81
2021/09/28 04:21:43;;;;;;;9.50;5.70;;;8.30;99.90;;;;;;5072563;28;20433;-81
2021/09/28 04:24:10;;;;;;;11.07;6.60;;;8.30;99.90;;;;;;5071464;28;20064;-81
2021/09/28 04:26:36;;;;;;;8.75;7.05;;;8.30;99.90;;;;;;5072664;28;20024;-81
2021/09/28 04:29:02;;;;;;;9.85;6.20;;;8.30;99.90;;;;;;5071488;28;20040;-81
2021/09/28 04:31:28;;;;;;;10.68;7.00;;;8.30;99.90;;;;;;5071348;28;20397;-81
2021/09/28 04:33:54;;;;;;;8.90;7.13;;;8.30;99.90;;;;;;5071431;28;20017;-81
2021/09/28 04:36:19;;;;;;;10.38;7.03;;;8.30;99.90;;;;;;5075837;28;20073;-81
2021/09/28 04:38:45;;;;;;;11.48;7.90;;;8.30;99.90;;;;;;5076514;28;20043;-81
2021/09/28 04:41:10;;;;;;;11.52;7.63;;;8.20;99.90;;;;;;5075359;28;20043;-81
2021/09/28 04:43:36;;;;;;;10.88;7.53;;;8.20;99.90;;;;;;5071861;28;20071;-81
2021/09/28 04:46:02;;;;;;;10.70;6.90;;;8.20;99.90;;;;;;5056632;28;20055;-82
2021/09/28 04:48:28;;;;;;;9.75;6.68;;;8.20;99.90;;;;;;5056182;28;20037;-82
2021/09/28 04:50:54;;;;;;;10.70;7.63;;;8.20;99.90;;;;;;5055221;28;20104;-82
2021/09/28 04:53:21;;;;;;;12.13;6.82;;;8.20;99.90;;;;;;5056295;28;20058;-81
2021/09/28 04:55:47;;;;;;;10.48;6.90;;;8.20;99.90;;;;;;5055040;28;20398;-81
2021/09/28 04:58:13;;;;;;;21.70;8.30;;;8.20;99.90;;;;;;5055859;28;20025;-81
2021/09/28 05:00:38;;;;;;;9.07;7.38;;;8.10;99.90;;;;;;5054934;28;20021;-81
2021/09/28 05:03:04;;;;;;;13.48;6.88;;;8.10;99.90;;;;;;5056206;28;20033;-81
2021/09/28 05:05:31;;;;;;;10.77;6.57;;;8.00;99.90;;;;;;5056332;28;20517;-80
2021/09/28 05:07:57;;;;;;;9.15;6.50;;;8.00;99.90;;;;;;5054377;28;20043;-81
2021/09/28 05:10:22;;;;;;;10.35;7.45;;;8.00;99.90;;;;;;5055636;28;20025;-81
2021/09/28 05:12:48;;;;;;;8.95;6.85;;;8.00;99.90;;;;;;5055926;28;20033;-81
2021/09/28 05:15:14;;;;;;;10.32;7.68;;;8.00;99.90;;;;;;5054250;28;20037;-81
2021/09/28 05:17:41;;;;;;;9.80;6.55;;;8.00;99.90;;;;;;5055925;28;20399;-82
2021/09/28 05:20:07;;;;;;;10.05;6.53;;;8.00;99.90;;;;;;5055620;28;20033;-81
2021/09/28 05:22:33;;;;;;;9.50;6.45;;;8.00;99.90;;;;;;5063986;28;20032;-81
2021/09/28 05:24:58;;;;;;;8.00;6.15;;;8.00;99.90;;;;;;5054182;28;20490;-81
2021/09/28 05:27:24;;;;;;;9.27;6.43;;;8.00;99.90;;;;;;5054087;28;20061;-81
2021/09/28 05:29:50;;;;;;;10.35;6.47;;;8.10;99.90;;;;;;5055379;28;20055;-81
2021/09/28 05:32:15;;;;;;;6.93;6.07;;;8.10;99.90;;;;;;5055300;28;20044;-82
2021/09/28 05:34:41;;;;;;;8.75;6.40;;;8.20;99.90;;;;;;5055395;28;20418;-81
2021/09/28 05:37:07;;;;;;;7.90;6.15;;;8.20;99.90;;;;;;5054398;28;20021;-82
2021/09/28 05:39:32;;;;;;;10.75;6.28;;;8.30;99.90;;;;;;5054466;28;20060;-82
2021/09/28 05:41:58;;;;;;;8.40;6.68;;;8.40;99.90;;;;;;5052413;28;20036;-83
2021/09/28 05:44:24;;;;;;;8.38;7.00;;;8.40;99.90;;;;;;5068509;28;20115;-83
2021/09/28 05:46:50;;;;;;;8.38;6.15;;;8.60;99.90;;;;;;5060965;28;20149;-83
2021/09/28 05:49:16;;;;;;;8.93;6.25;;;8.70;99.90;;;;;;5073059;28;20096;-84
2021/09/28 05:52:01;;;;;;;7.28;5.53;;;8.70;99.90;;;;;;5071688;28;20452;-81
2021/09/28 05:54:27;;;;;;;12.63;6.45;;;8.80;99.90;;;;;;5051460;28;20394;-84
2021/09/28 05:56:53;;;;;;;8.77;6.32;;;8.90;99.90;;;;;;5051335;28;20071;-85
2021/09/28 05:59:20;;;;;;;7.88;6.45;;;9.00;99.90;;;;;;5053433;28;20017;-86
2021/09/28 06:01:48;;;;;;;10.38;7.00;;;9.10;99.90;;;;;;5053331;28;20021;-85
2021/09/28 06:04:15;;;;;;;8.88;5.90;;;9.20;99.90;;;;;;5053536;28;20025;-85
2021/09/28 06:06:41;;;;;;;6.03;5.47;;;9.30;99.90;;;;;;5053872;28;20099;-84
2021/09/28 06:09:07;;;;;;;11.07;5.97;;;9.30;99.90;;;;;;5051783;28;20368;-86
2021/09/28 06:11:32;;;;;;;6.43;5.40;;;9.40;99.90;;;;;;5052254;28;20025;-85
2021/09/28 06:13:58;;;;;;;7.78;6.07;;;9.50;99.90;;;;;;5044746;28;20116;-87
2021/09/28 06:16:24;;;;;;;8.35;6.63;;;9.70;99.90;;;;;;5052038;28;20029;-86
2021/09/28 06:18:50;;;;;;;8.45;5.93;;;9.80;99.90;;;;;;5036918;28;20065;-85
2021/09/28 06:21:16;;;;;;;9.73;6.25;;;9.90;99.90;;;;;;5043442;28;20023;-85
2021/09/28 06:23:42;;;;;;;7.13;6.03;;;9.90;99.90;;;;;;5048555;28;20037;-87
2021/09/28 06:26:08;;;;;;;7.70;5.80;;;9.90;99.90;;;;;;5048133;28;20459;-86
2021/09/28 06:28:36;;;;;;;7.95;5.30;;;9.90;99.90;;;;;;5048890;28;20045;-86
2021/09/28 06:31:01;;;;;;;8.93;5.95;;;9.80;99.90;;;;;;5049534;28;20032;-86
2021/09/28 06:33:27;;;;;;;12.48;6.20;;;9.90;99.90;;;;;;5048592;28;20044;-86
2021/09/28 06:35:52;;;;;;;10.25;5.88;;;9.90;99.90;;;;;;5049995;28;20021;-86
2021/09/28 06:40:12;;;;;;;7.43;5.82;;;10.00;99.90;;;;;;5067753;27;20688;-89
2021/09/28 06:42:38;;;;;;;8.30;5.57;;;10.20;99.90;;;;;;5068048;28;20108;-88
2021/09/28 06:45:04;;;;;;;8.55;5.95;;;10.30;99.90;;;;;;5066153;28;20553;-89
2021/09/28 06:47:30;;;;;;;7.40;4.78;;;10.50;99.90;;;;;;5067203;28;20025;-88
2021/09/28 06:49:56;;;;;;;8.25;5.00;;;10.50;99.90;;;;;;5062292;28;20033;-88
2021/09/28 06:52:21;;;;;;;7.05;5.32;;;10.60;99.90;;;;;;5063812;28;20485;-89
2021/09/28 06:54:47;;;;;;;8.38;5.28;;;10.60;99.90;;;;;;5048620;28;20041;-88
2021/09/28 06:57:12;;;;;;;7.53;5.45;;;10.60;99.90;;;;;;5047600;28;20313;-88
2021/09/28 06:59:38;;;;;;;5.93;5.35;;;10.60;99.90;;;;;;5064923;28;20143;-88
2021/09/28 07:02:04;;;;;;;5.97;5.38;;;10.60;99.90;;;;;;5066213;28;20024;-88
2021/09/28 07:04:30;;;;;;;7.53;5.85;;;10.60;99.90;;;;;;5066916;28;20029;-88
2021/09/28 07:06:55;;;;;;;9.65;5.30;;;10.60;99.90;;;;;;5067631;28;20032;-87
2021/09/28 07:09:21;;;;;;;6.13;5.28;;;10.60;99.90;;;;;;5066644;28;20068;-86
2021/09/28 07:11:47;;;;;;;7.72;5.43;;;10.60;99.90;;;;;;5066164;28;20017;-87
2021/09/28 07:14:12;;;;;;;5.72;5.00;;;10.70;99.90;;;;;;5061174;28;20131;-86
2021/09/28 07:16:38;;;;;;;7.57;5.30;;;10.70;99.90;;;;;;5066730;28;20033;-86
2021/09/28 07:19:04;;;;;;;7.10;4.65;;;10.80;99.90;;;;;;5065782;28;20044;-87
2021/09/28 07:21:30;;;;;;;5.25;4.50;;;10.90;99.90;;;;;;5066779;28;20485;-87
2021/09/28 07:23:56;;;;;;;6.40;5.57;;;11.00;99.90;;;;;;5065717;28;20110;-89
2021/09/28 07:26:21;;;;;;;5.35;4.85;;;11.20;99.90;;;;;;5065796;28;20017;-87
2021/09/28 07:28:47;;;;;;;9.32;4.93;;;11.50;99.90;;;;;;5065407;27;20607;-87
2021/09/28 07:31:12;;;;;;;5.55;4.68;;;11.70;99.90;;;;;;5065824;28;20371;-87
2021/09/28 07:33:38;;;;;;;6.03;4.55;;;11.80;99.90;;;;;;5066067;28;20104;-86
2021/09/28 07:36:06;;;;;;;9.13;5.30;;;12.00;99.90;;;;;;5066930;28;20112;-87
2021/09/28 07:38:32;;;;;;;7.30;5.05;;;12.30;99.90;;;;;;5063916;27;20130;-86
2021/09/28 07:40:58;;;;;;;7.32;4.57;;;12.40;99.90;;;;;;5066242;28;20021;-87
2021/09/28 07:43:24;;;;;;;5.60;4.28;;;12.40;99.90;;;;;;5067100;28;20032;-88
2021/09/28 07:45:50;;;;;;;5.50;4.30;;;12.50;99.90;;;;;;5067727;27;20039;-88
2021/09/28 07:48:16;;;;;;;7.43;4.40;;;12.50;99.90;;;;;;5065839;28;20013;-86
2021/09/28 07:50:42;;;;;;;7.22;4.32;;;12.50;99.90;;;;;;5057704;28;20390;-86
2021/09/28 07:53:10;;;;;;;4.80;4.03;;;12.50;99.90;;;;;;5050724;28;20021;-87
2021/09/28 07:55:36;;;;;;;5.88;4.50;;;12.60;99.90;;;;;;5052430;28;20120;-86
2021/09/28 07:58:03;;;;;;;4.95;4.38;;;12.60;99.90;;;;;;5050719;28;20111;-88
2021/09/28 08:00:29;;;;;;;7.38;3.90;;;12.60;99.90;;;;;;5052839;28;20033;-88
2021/09/28 08:02:55;;;;;;;5.60;4.43;;;12.70;99.90;;;;;;5053337;28;20104;-88
2021/09/28 08:05:20;;;;;;;6.38;4.60;;;12.90;99.90;;;;;;5053634;28;20113;-88
2021/09/28 08:07:46;;;;;;;11.60;4.90;;;13.10;99.90;;;;;;5053502;28;20080;-89
2021/09/28 08:10:15;;;;;;;5.55;3.97;;;13.30;99.90;;;;;;5052403;28;20131;-88
2021/09/28 08:12:41;;;;;;;6.22;4.30;;;13.60;99.90;;;;;;5051800;28;20021;-88
2021/09/28 08:15:08;;;;;;;5.47;4.07;;;13.60;99.90;;;;;;5047265;28;20056;-87
2021/09/28 08:17:37;;;;;;;5.45;4.35;;;13.80;99.90;;;;;;5054173;28;20044;-89
2021/09/28 08:20:03;;;;;;;6.57;4.20;;;13.90;99.90;;;;;;5049159;28;20045;-87
2021/09/28 08:22:39;;;;;;;5.60;4.50;;;14.00;99.90;;;;;;5032990;28;20044;-87
2021/09/28 08:25:10;;;;;;;6.80;4.13;;;14.10;99.90;;;;;;5032939;28;20120;-87
2021/09/28 08:30:23;;;;;;;7.50;5.00;;;14.30;99.90;;;;;;5053067;28;20520;-86
2021/09/28 08:32:49;;;;;;;8.85;4.90;;;14.20;99.90;;;;;;5051908;28;20024;-86
2021/09/28 08:35:15;;;;;;;10.25;4.72;;;14.10;99.90;;;;;;5048082;28;20032;-87
2021/09/28 08:37:41;;;;;;;7.03;4.80;;;14.00;99.90;;;;;;5032700;28;20528;-86
2021/09/28 08:40:07;;;;;;;8.50;4.50;;;14.00;99.90;;;;;;5048235;28;20124;-87
2021/09/28 08:42:33;;;;;;;6.45;4.75;;;14.10;99.90;;;;;;5051298;28;20017;-87
2021/09/28 08:44:59;;;;;;;9.98;4.68;;;14.20;99.90;;;;;;5040783;28;20475;-87
2021/09/28 08:47:38;;;;;;;7.47;4.22;;;14.10;99.90;;;;;;5031731;28;20032;-86
2021/09/28 08:50:08;;;;;;;6.53;5.05;;;14.30;99.90;;;;;;5031083;28;20040;-87
2021/09/28 08:52:42;;;;;;;6.72;4.43;;;14.30;99.90;;;;;;5046556;28;20044;-88
2021/09/28 08:55:08;;;;;;;10.35;5.13;;;14.40;99.90;;;;;;5050453;28;20068;-88
2021/09/28 08:57:34;;;;;;;8.23;4.72;;;14.50;99.90;;;;;;5049444;28;20021;-88
2021/09/28 09:00:00;;;;;;;8.55;5.35;;;14.60;99.90;;;;;;5030708;28;20052;-87
2021/09/28 09:02:55;;;;;;;6.22;4.47;;;14.60;99.90;;;;;;5029435;28;20075;-87
2021/09/28 09:05:22;;;;;;;12.80;5.35;;;14.60;99.90;;;;;;5025931;28;20386;-83
2021/09/28 09:08:04;;;;;;;7.20;5.18;;;14.50;99.90;;;;;;5032031;28;20028;-87
2021/09/28 09:10:35;;;;;;;6.82;4.38;;;14.40;99.90;;;;;;5032306;28;20037;-88
2021/09/28 09:13:02;;;;;;;9.38;6.03;;;14.50;99.90;;;;;;5030646;28;20052;-86
2021/09/28 09:15:27;;;;;;;6.18;4.88;;;14.60;99.90;;;;;;5028308;28;20171;-87
2021/09/28 09:17:56;;;;;;;9.25;5.65;;;14.80;99.90;;;;;;5045649;28;20107;-86
2021/09/28 09:20:37;;;;;;;11.63;6.38;;;14.90;99.90;;;;;;5051095;28;20118;-89
2021/09/28 09:23:25;;;;;;;9.98;6.00;;;14.90;99.90;;;;;;5049848;28;20037;-85
2021/09/28 09:26:17;;;;;;;6.38;5.10;;;15.00;99.90;;;;;;5051680;28;20079;-86
2021/09/28 09:28:49;;;;;;;8.35;5.43;;;15.00;99.90;;;;;;5050915;28;20116;-86
2021/09/28 09:31:31;;;;;;;8.18;5.05;;;15.00;99.90;;;;;;5051432;28;20063;-87
2021/09/28 09:34:22;;;;;;;6.80;4.80;;;15.20;99.90;;;;;;5051637;28;20021;-87
2021/09/28 09:36:56;;;;;;;9.68;5.65;;;15.40;99.90;;;;;;5052241;28;20047;-89
2021/09/28 09:39:22;;;;;;;8.82;5.07;;;15.40;99.90;;;;;;5051705;28;20039;-87
2021/09/28 09:42:03;;;;;;;6.80;5.53;;;15.40;99.90;;;;;;5050377;28;20016;-87
2021/09/28 09:44:31;;;;;;;12.95;5.72;;;15.40;99.90;;;;;;5050586;28;20437;-87
2021/09/28 09:46:59;;;;;;;9.65;5.53;;;15.50;99.90;;;;;;5051461;28;20017;-87
2021/09/28 09:49:36;;;;;;;10.75;5.82;;;15.50;99.90;;;;;;5050358;28;20020;-87
2021/09/28 09:52:09;;;;;;;6.82;5.53;;;15.60;99.90;;;;;;5049637;28;20029;-87
2021/09/28 09:54:39;;;;;;;9.85;5.60;;;15.60;99.90;;;;;;5051379;28;20021;-87
2021/09/28 09:57:07;;;;;;;8.32;4.60;;;15.80;99.90;;;;;;5051090;28;20040;-87
2021/09/28 09:59:34;;;;;;;7.63;5.80;;;15.90;99.90;;;;;;5051556;28;20120;-87
2021/09/28 10:02:00;;;;;;;9.05;5.82;;;16.00;99.90;;;;;;5049923;28;20021;-86
2021/09/28 10:04:26;;;;;;;7.07;4.93;;;15.80;99.90;;;;;;5050410;28;20052;-87
2021/09/28 10:06:53;;;;;;;9.45;6.35;;;15.80;99.90;;;;;;5050945;28;20064;-87
2021/09/28 10:09:27;;;;;;;10.45;6.10;;;15.90;99.90;;;;;;5049798;28;20023;-87
2021/09/28 10:11:55;;;;;;;7.00;4.47;;;16.00;99.90;;;;;;5049997;28;20167;-87
2021/09/28 10:14:42;;;;;;;8.02;5.20;;;16.00;99.10;;;;;;5045268;28;20025;-87
2021/09/28 10:17:20;;;;;;;8.30;5.32;;;16.20;99.90;;;;;;5049654;28;20025;-87
2021/09/28 10:19:56;;;;;;;9.40;4.85;;;16.40;99.90;;;;;;5051119;28;20060;-87
2021/09/28 10:22:40;;;;;;;7.72;4.72;;;16.30;94.40;;;;;;5049676;28;20033;-87
2021/09/28 10:25:37;;;;;;;7.38;4.45;;;16.30;92.70;;;;;;5048756;28;20385;-88
2021/09/28 10:28:12;;;;;;;10.45;5.10;;;16.40;94.90;;;;;;5047802;28;20125;-88
2021/09/28 10:30:57;;;;;;;9.77;5.05;;;16.40;93.80;;;;;;5049774;28;20053;-87
2021/09/28 10:33:27;;;;;;;8.85;4.90;;;16.50;92.90;;;;;;5049988;28;20104;-88
2021/09/28 10:36:00;;;;;;;8.05;5.55;;;16.50;92.40;;;;;;5049054;28;20086;-88
2021/09/28 10:38:40;;;;;;;6.70;4.65;;;16.60;93.30;;;;;;5050943;28;20052;-88
2021/09/28 10:41:06;;;;;;;10.23;5.05;;;16.80;93.20;;;;;;5048304;28;20120;-88
2021/09/28 10:43:32;;;;;;;7.78;5.80;;;16.70;90.80;;;;;;5049828;28;20437;-88
2021/09/28 10:46:00;;;;;;;9.18;5.13;;;16.60;89.70;;;;;;5049121;28;20037;-88
2021/09/28 10:48:33;;;;;;;14.00;5.53;;;16.60;89.10;;;;;;5049993;28;20086;-87
2021/09/28 10:51:07;;;;;;;;;;;16.60;92.20;;;;;;5048997;28;20040;-87
2021/09/28 10:53:37;;;;;;;7.75;4.97;;;16.50;90.30;;;;;;5049626;28;19944;-87
2021/09/28 10:56:06;;;;;;;7.68;4.97;;;16.50;90.40;;;;;;5048810;28;20036;-87
2021/09/28 10:58:56;;;;;;;8.25;4.78;;;16.40;89.50;;;;;;5049251;28;20040;-88
2021/09/28 11:01:26;;;;;;;7.35;5.28;;;16.40;90.80;;;;;;5050569;28;20484;-87
2021/09/28 11:03:56;;;;;;;10.73;4.75;;;16.40;91.30;;;;;;5049326;28;20017;-87
2021/09/28 11:06:40;;;;;;;9.23;4.40;;;16.50;90.70;;;;;;5049377;28;20067;-87
2021/09/28 11:09:07;;;;;;;7.60;4.30;;;16.60;90.40;;;;;;5048863;28;20021;-88
2021/09/28 11:11:33;;;;;;;9.10;4.47;;;16.70;90.20;;;;;;5049680;28;20029;-88
2021/09/28 11:14:03;;;;;;;8.27;4.22;;;16.70;88.90;;;;;;5044790;28;20037;-86
2021/09/28 11:16:42;;;;;;;9.88;4.68;;;16.70;88.90;;;;;;5049459;28;20090;-88
2021/09/28 11:19:08;;;;;;;7.25;4.30;;;16.60;86.60;;;;;;5049908;28;20033;-87
2021/09/28 11:21:41;;;;;;;7.25;4.57;;;16.70;88.50;;;;;;5049131;28;20085;-85
2021/09/28 11:24:07;;;;;;;6.95;4.55;;;16.70;87.90;;;;;;5048196;28;20112;-86
2021/09/28 11:26:38;;;;;;;8.52;5.00;;;16.80;89.60;;;;;;5052193;28;20056;-88
2021/09/28 11:29:05;;;;;;;10.02;4.82;;;16.80;89.00;;;;;;5052554;28;20130;-87
2021/09/28 11:31:45;;;;;;;7.18;5.25;;;16.70;86.20;;;;;;5035083;28;20355;-87
2021/09/28 11:34:11;;;;;;;8.52;4.40;;;16.80;89.60;;;;;;5034690;28;20021;-86
2021/09/28 11:36:45;;;;;;;7.05;5.00;;;16.70;88.40;;;;;;5035368;28;20025;-87
2021/09/28 11:39:15;;;;;;;8.13;4.78;;;16.70;86.60;;;;;;5034588;28;20094;-87
2021/09/28 11:41:42;;;;;;;6.97;4.22;;;16.80;88.80;;;;;;5034605;28;20079;-86
2021/09/28 11:44:08;;;;;;;10.40;4.28;;;16.80;87.80;;;;;;5044485;28;20021;-87
2021/09/28 11:46:35;;;;;;;8.10;4.68;;;16.80;87.30;;;;;;5053937;28;20028;-87
2021/09/28 11:49:09;;;;;;;7.75;4.85;;;16.80;89.10;;;;;;5053017;28;20110;-87
2021/09/28 11:51:40;;;;;;;8.65;4.53;;;16.80;89.90;;;;;;5054377;28;20040;-87
2021/09/28 11:54:12;;;;;;;13.05;5.45;;;16.70;88.70;;;;;;5054282;28;20052;-87
2021/09/28 11:56:41;;;;;;;10.05;6.00;;;16.80;92.60;;;;;;5055619;28;20526;-87
2021/09/28 11:59:16;;;;;;;9.75;5.07;;;16.80;91.90;;;;;;5054072;28;20028;-87
2021/09/28 12:01:42;;;;;;;7.82;5.72;;;16.70;88.30;;;;;;5054295;28;20025;-87
2021/09/28 12:07:04;;;;;;;9.20;4.85;;;16.60;87.80;;;;;;5055398;28;20386;-87
2021/09/28 12:09:29;;;;;;;5.82;4.63;;;16.50;90.40;;;;;;5053899;28;20504;-88
2021/09/28 12:12:09;;;;;;;10.48;4.45;;;16.50;91.00;;;;;;5053812;28;20025;-87
2021/09/28 12:14:42;;;;;;;9.18;4.43;;;16.50;88.60;;;;;;5054163;28;20115;-88
2021/09/28 12:17:18;;;;;;;7.25;4.53;;;16.50;83.20;;;;;;5050932;28;20026;-88
2021/09/28 12:19:48;;;;;;;5.57;3.95;;;16.50;85.90;;;;;;5051763;28;20028;-88
2021/09/28 12:22:28;;;;;;;7.65;4.57;;;16.60;85.20;;;;;;5052965;28;20118;-88
2021/09/28 12:24:55;;;;;;;8.05;4.45;;;16.50;82.20;;;;;;5051571;28;20493;-88
2021/09/28 12:27:23;;;;;;;8.80;4.50;;;16.50;85.40;;;;;;5054181;28;20553;-88
2021/09/28 12:29:50;;;;;;;6.80;4.07;;;16.50;87.80;;;;;;5053436;28;20029;-86
2021/09/28 12:32:19;;;;;;;5.80;3.47;;;16.60;87.20;;;;;;5053661;28;20033;-88
2021/09/28 12:34:56;;;;;;;6.22;3.85;;;16.60;87.50;;;;;;5053057;28;20125;-88
2021/09/28 12:37:26;;;;;;;7.40;4.05;;;16.50;85.60;;;;;;5053321;28;20525;-89
2021/09/28 12:40:20;;;;;;;5.57;3.83;;;16.40;84.80;;;;;;5053566;28;20089;-87
2021/09/28 12:42:46;;;;;;;8.48;4.40;;;16.40;86.70;;;;;;5051191;28;20044;-88
2021/09/28 12:45:16;;;;;;;7.28;4.22;;;16.40;89.60;;;;;;5054565;28;20021;-88
2021/09/28 12:47:55;;;;;;;6.00;3.80;;;16.40;89.20;;;;;;5053346;28;20052;-88
2021/09/28 12:50:33;;;;;;;8.45;3.90;;;16.40;88.40;;;;;;5052987;28;20021;-87
2021/09/28 12:53:04;;;;;;;7.22;4.65;;;16.40;84.40;;;;;;5052626;28;20366;-90
2021/09/28 12:55:36;;;;;;;7.85;4.32;;;16.40;85.70;;;;;;5053041;28;20032;-88
2021/09/28 12:58:05;;;;;;;4.15;3.75;;;16.40;87.00;;;;;;5053342;28;20033;-87
2021/09/28 13:00:30;;;;;;;5.88;5.07;;;16.50;88.90;;;;;;5052416;28;20053;-87
2021/09/28 13:02:56;;;;;;;9.68;5.72;;;16.50;90.00;;;;;;5052336;28;20076;-88